Terminal Aerodrome Forecast
Issued by NWS Newport/Morehead City, NC

Home | Current Version | Previous Version | Text Only | Print | Product List | Glossary On
Versions: 1 2 3 4 5 6 7 8 9 10 11 12 13 14 15 16 17 18 19 20 21 22
000
FTUS42 KMHX 260500
TAFEWN
TAF
KEWN 260520Z 2606/2706 20003KT P6SM SKC
     FM261000 23003KT 4SM BR BKN010
     FM261300 25005KT P6SM SCT020
     FM261700 30005KT P6SM SCT040
     FM262200 18005KT P6SM SCT040=

USA.gov is the U.S. government's official web portal to all federal, state and local government web resources and services.